Terminal Aerodrome Forecast
Issued by NWS Charleston, WV

Current Version | Previous Version | Text Only | Print | Product List | Glossary Off
Versions: 1 2 3 4 5 6 7 8 9 10 11 12 13 14 15 16 17 18 19 20 21 22 23 24 25 26 27 28 29 30 31 32 33

000
FTUS41 KRLX 261000 AAC
TAFCRW
TAF AMD
KCRW 261012Z 2610/2706 00000KT 1 1/2SM BR SCT001
     FM261200 00000KT 3SM BR SCT002
     FM261300 00000KT 6SM BR FEW004
     FM261400 10004KT P6SM FEW045=

USA.gov is the U.S. government's official web portal to all federal, state and local government web resources and services.